sensor_id;sensor_type;location;lat;lon;timestamp;pressure;altitude;pressure_sealevel;temperature;humidity
17060;BME280;8646;49.716;9.266;2022-10-16T00:02:25;100013.28;;;17.06;100.00
17060;BME280;8646;49.716;9.266;2022-10-16T00:05:29;99992.56;;;16.91;100.00
17060;BME280;8646;49.716;9.266;2022-10-16T00:08:33;100012.78;;;17.01;100.00
17060;BME280;8646;49.716;9.266;2022-10-16T00:11:38;100010.16;;;17.00;100.00
17060;BME280;8646;49.716;9.266;2022-10-16T00:14:43;100015.25;;;17.04;100.00
17060;BME280;8646;49.716;9.266;2022-10-16T00:17:46;100011.66;;;17.04;100.00
17060;BME280;8646;49.716;9.266;2022-10-16T00:20:49;100025.88;;;17.09;100.00
17060;BME280;8646;49.716;9.266;2022-10-16T00:23:53;100041.59;;;17.05;100.00
17060;BME280;8646;49.716;9.266;2022-10-16T00:26:57;100035.84;;;16.97;100.00
17060;BME280;8646;49.716;9.266;2022-10-16T00:30:01;100041.34;;;16.85;100.00
17060;BME280;8646;49.716;9.266;2022-10-16T00:33:04;100042.22;;;16.85;100.00
17060;BME280;8646;49.716;9.266;2022-10-16T00:36:10;100044.38;;;16.80;100.00
17060;BME280;8646;49.716;9.266;2022-10-16T00:39:14;100050.28;;;16.87;100.00
17060;BME280;8646;49.716;9.266;2022-10-16T00:42:18;100053.88;;;16.87;100.00
17060;BME280;8646;49.716;9.266;2022-10-16T00:45:22;100047.44;;;16.88;100.00
17060;BME280;8646;49.716;9.266;2022-10-16T00:48:26;100046.47;;;16.89;100.00
17060;BME280;8646;49.716;9.266;2022-10-16T00:51:31;100053.88;;;16.87;100.00
17060;BME280;8646;49.716;9.266;2022-10-16T00:54:35;100027.78;;;16.83;100.00
17060;BME280;8646;49.716;9.266;2022-10-16T00:57:39;100030.72;;;16.80;100.00
17060;BME280;8646;49.716;9.266;2022-10-16T01:00:43;100037.94;;;16.81;100.00
17060;BME280;8646;49.716;9.266;2022-10-16T01:03:47;100016.53;;;16.75;100.00
17060;BME280;8646;49.716;9.266;2022-10-16T01:06:57;100037.94;;;16.81;100.00
17060;BME280;8646;49.716;9.266;2022-10-16T01:10:14;100047.78;;;16.84;100.00
17060;BME280;8646;49.716;9.266;2022-10-16T01:13:24;100041.22;;;16.86;100.00
17060;BME280;8646;49.716;9.266;2022-10-16T01:16:35;100023.97;;;16.86;100.00
17060;BME280;8646;49.716;9.266;2022-10-16T01:19:51;100033.78;;;16.88;100.00
17060;BME280;8646;49.716;9.266;2022-10-16T01:23:10;100046.25;;;16.92;100.00
17060;BME280;8646;49.716;9.266;2022-10-16T01:26:31;100045.69;;;16.87;100.00
17060;BME280;8646;49.716;9.266;2022-10-16T01:29:42;100061.75;;;16.79;100.00
17060;BME280;8646;49.716;9.266;2022-10-16T01:32:50;100049.13;;;16.78;100.00
17060;BME280;8646;49.716;9.266;2022-10-16T01:35:59;100014.56;;;16.64;100.00
17060;BME280;8646;49.716;9.266;2022-10-16T01:39:09;100044.38;;;16.80;100.00
17060;BME280;8646;49.716;9.266;2022-10-16T01:42:16;100050.72;;;16.81;100.00
17060;BME280;8646;49.716;9.266;2022-10-16T01:45:21;100046.38;;;16.78;100.00
17060;BME280;8646;49.716;9.266;2022-10-16T01:48:24;100048.88;;;16.81;100.00
17060;BME280;8646;49.716;9.266;2022-10-16T01:51:29;100055.31;;;16.80;100.00
17060;BME280;8646;49.716;9.266;2022-10-16T01:54:33;100050.72;;;16.81;100.00
17060;BME280;8646;49.716;9.266;2022-10-16T01:57:40;100044.94;;;16.85;100.00
17060;BME280;8646;49.716;9.266;2022-10-16T02:00:47;100054.22;;;16.83;100.00
17060;BME280;8646;49.716;9.266;2022-10-16T02:03:54;100035.22;;;16.81;100.00
17060;BME280;8646;49.716;9.266;2022-10-16T02:06:58;100053.56;;;16.79;100.00
17060;BME280;8646;49.716;9.266;2022-10-16T02:10:02;100043.66;;;16.78;100.00
17060;BME280;8646;49.716;9.266;2022-10-16T02:13:08;100045.81;;;16.73;100.00
17060;BME280;8646;49.716;9.266;2022-10-16T02:16:13;100060.91;;;16.66;100.00
17060;BME280;8646;49.716;9.266;2022-10-16T02:19:17;100073.91;;;16.62;100.00
17060;BME280;8646;49.716;9.266;2022-10-16T02:22:24;100073.69;;;16.65;100.00
17060;BME280;8646;49.716;9.266;2022-10-16T02:25:31;100079.06;;;16.67;100.00
17060;BME280;8646;49.716;9.266;2022-10-16T02:28:38;100078.72;;;16.71;100.00
17060;BME280;8646;49.716;9.266;2022-10-16T02:31:48;100076.84;;;16.72;100.00
17060;BME280;8646;49.716;9.266;2022-10-16T02:34:52;100060.03;;;16.78;100.00
17060;BME280;8646;49.716;9.266;2022-10-16T02:37:57;100062.22;;;16.73;100.00
17060;BME280;8646;49.716;9.266;2022-10-16T02:41:01;100066.91;;;16.71;100.00
17060;BME280;8646;49.716;9.266;2022-10-16T02:44:03;100061.59;;;16.69;100.00
17060;BME280;8646;49.716;9.266;2022-10-16T02:47:07;100062.88;;;16.64;100.00
17060;BME280;8646;49.716;9.266;2022-10-16T02:50:16;100056.31;;;16.54;100.00
17060;BME280;8646;49.716;9.266;2022-10-16T02:53:19;100054.41;;;16.54;100.00
17060;BME280;8646;49.716;9.266;2022-10-16T02:56:21;100049.41;;;16.48;100.00
17060;BME280;8646;49.716;9.266;2022-10-16T02:59:25;100057.69;;;16.47;100.00
17060;BME280;8646;49.716;9.266;2022-10-16T03:02:29;100064.69;;;16.38;100.00
17060;BME280;8646;49.716;9.266;2022-10-16T03:05:32;100073.75;;;16.38;100.00
17060;BME280;8646;49.716;9.266;2022-10-16T03:08:35;100069.63;;;16.33;100.00
17060;BME280;8646;49.716;9.266;2022-10-16T03:11:38;100071.38;;;16.34;100.00
17060;BME280;8646;49.716;9.266;2022-10-16T03:14:41;100058.69;;;16.33;100.00
17060;BME280;8646;49.716;9.266;2022-10-16T03:17:46;100063.72;;;16.26;100.00
17060;BME280;8646;49.716;9.266;2022-10-16T03:20:48;100063.72;;;16.26;100.00
17060;BME280;8646;49.716;9.266;2022-10-16T03:23:51;100068.84;;;16.18;100.00
17060;BME280;8646;49.716;9.266;2022-10-16T03:26:54;100071.22;;;16.23;100.00
17060;BME280;8646;49.716;9.266;2022-10-16T03:29:57;100065.34;;;16.16;100.00
17060;BME280;8646;49.716;9.266;2022-10-16T03:33:02;100078.88;;;16.18;100.00
17060;BME280;8646;49.716;9.266;2022-10-16T03:36:05;100080.84;;;16.16;100.00
17060;BME280;8646;49.716;9.266;2022-10-16T03:39:09;100070.69;;;16.18;100.00
17060;BME280;8646;49.716;9.266;2022-10-16T03:42:12;100076.50;;;16.13;100.00
17060;BME280;8646;49.716;9.266;2022-10-16T03:45:15;100081.16;;;16.11;100.00
17060;BME280;8646;49.716;9.266;2022-10-16T03:48:19;100080.72;;;16.17;100.00
17060;BME280;8646;49.716;9.266;2022-10-16T03:51:22;100079.72;;;16.06;100.00
17060;BME280;8646;49.716;9.266;2022-10-16T03:54:25;100096.22;;;16.04;100.00
17060;BME280;8646;49.716;9.266;2022-10-16T03:57:28;100085.41;;;16.15;100.00
17060;BME280;8646;49.716;9.266;2022-10-16T04:00:31;100092.72;;;16.15;100.00
17060;BME280;8646;49.716;9.266;2022-10-16T04:03:35;100080.72;;;16.17;100.00
17060;BME280;8646;49.716;9.266;2022-10-16T04:06:39;100086.97;;;16.19;100.00
17060;BME280;8646;49.716;9.266;2022-10-16T04:09:41;100087.84;;;16.20;100.00
17060;BME280;8646;49.716;9.266;2022-10-16T04:12:45;100081.38;;;16.08;100.00
17060;BME280;8646;49.716;9.266;2022-10-16T04:15:48;100093.25;;;16.07;100.00
17060;BME280;8646;49.716;9.266;2022-10-16T04:18:53;100097.28;;;16.01;100.00
17060;BME280;8646;49.716;9.266;2022-10-16T04:21:55;100104.59;;;16.01;100.00
17060;BME280;8646;49.716;9.266;2022-10-16T04:24:58;100111.81;;;16.02;100.00
17060;BME280;8646;49.716;9.266;2022-10-16T04:28:02;100099.41;;;15.84;100.00
17060;BME280;8646;49.716;9.266;2022-10-16T04:31:05;100120.63;;;15.93;100.00
17060;BME280;8646;49.716;9.266;2022-10-16T04:34:10;100111.66;;;15.91;100.00
17060;BME280;8646;49.716;9.266;2022-10-16T04:37:13;100104.69;;;15.87;100.00
17060;BME280;8646;49.716;9.266;2022-10-16T04:40:17;100120.38;;;15.83;100.00
17060;BME280;8646;49.716;9.266;2022-10-16T04:43:20;100121.94;;;15.87;100.00
17060;BME280;8646;49.716;9.266;2022-10-16T04:46:24;100134.47;;;15.90;100.00
17060;BME280;8646;49.716;9.266;2022-10-16T04:49:28;100129.44;;;15.84;100.00
17060;BME280;8646;49.716;9.266;2022-10-16T04:52:31;100137.19;;;15.90;100.00
17060;BME280;8646;49.716;9.266;2022-10-16T04:55:35;100146.59;;;15.86;100.00
17060;BME280;8646;49.716;9.266;2022-10-16T04:58:39;100147.03;;;15.92;100.00
17060;BME280;8646;49.716;9.266;2022-10-16T05:01:43;100135.16;;;15.93;100.00
17060;BME280;8646;49.716;9.266;2022-10-16T05:04:47;100138.22;;;15.89;100.00
17060;BME280;8646;49.716;9.266;2022-10-16T05:07:51;100142.19;;;15.83;100.00
17060;BME280;8646;49.716;9.266;2022-10-16T05:10:53;100134.91;;;15.84;100.00
17060;BME280;8646;49.716;9.266;2022-10-16T05:13:57;100131.88;;;15.88;100.00
17060;BME280;8646;49.716;9.266;2022-10-16T05:17:00;100122.59;;;15.91;100.00
17060;BME280;8646;49.716;9.266;2022-10-16T05:20:05;100107.75;;;15.95;100.00
17060;BME280;8646;49.716;9.266;2022-10-16T05:23:08;100108.41;;;15.98;100.00
17060;BME280;8646;49.716;9.266;2022-10-16T05:26:19;100118.88;;;15.92;100.00
17060;BME280;8646;49.716;9.266;2022-10-16T05:29:22;100114.81;;;15.85;100.00
17060;BME280;8646;49.716;9.266;2022-10-16T05:32:25;100109.72;;;15.93;100.00
17060;BME280;8646;49.716;9.266;2022-10-16T05:35:29;100112.63;;;15.90;100.00
17060;BME280;8646;49.716;9.266;2022-10-16T05:38:33;100132.84;;;15.87;100.00
17060;BME280;8646;49.716;9.266;2022-10-16T05:41:36;100129.00;;;15.90;100.00
17060;BME280;8646;49.716;9.266;2022-10-16T05:44:39;100125.94;;;15.82;100.00
17060;BME280;8646;49.716;9.266;2022-10-16T05:47:42;100120.59;;;15.80;100.00
17060;BME280;8646;49.716;9.266;2022-10-16T05:50:46;100116.03;;;15.81;100.00
17060;BME280;8646;49.716;9.266;2022-10-16T05:53:49;100127.91;;;15.80;100.00
17060;BME280;8646;49.716;9.266;2022-10-16T05:56:52;100138.91;;;15.78;100.00
17060;BME280;8646;49.716;9.266;2022-10-16T05:59:55;100137.16;;;15.77;100.00
17060;BME280;8646;49.716;9.266;2022-10-16T06:02:58;100132.03;;;15.73;100.00
17060;BME280;8646;49.716;9.266;2022-10-16T06:06:08;100139.91;;;15.77;100.00
17060;BME280;8646;49.716;9.266;2022-10-16T06:09:13;100143.91;;;15.72;100.00
17060;BME280;8646;49.716;9.266;2022-10-16T06:12:15;100149.16;;;15.75;100.00
17060;BME280;8646;49.716;9.266;2022-10-16T06:15:18;100145.81;;;15.84;100.00
17060;BME280;8646;49.716;9.266;2022-10-16T06:18:21;100145.97;;;15.95;100.00
17060;BME280;8646;49.716;9.266;2022-10-16T06:21:28;100155.91;;;15.96;100.00
17060;BME280;8646;49.716;9.266;2022-10-16T06:24:31;100170.88;;;16.03;100.00
17060;BME280;8646;49.716;9.266;2022-10-16T06:27:34;100175.00;;;15.96;100.00
17060;BME280;8646;49.716;9.266;2022-10-16T06:30:37;100191.63;;;16.06;100.00
17060;BME280;8646;49.716;9.266;2022-10-16T06:33:39;100196.25;;;15.91;100.00
17060;BME280;8646;49.716;9.266;2022-10-16T06:36:44;100202.69;;;15.90;100.00
17060;BME280;8646;49.716;9.266;2022-10-16T06:39:47;100182.63;;;15.91;100.00
17060;BME280;8646;49.716;9.266;2022-10-16T06:42:50;100212.81;;;16.02;100.00
17060;BME280;8646;49.716;9.266;2022-10-16T06:45:54;100206.38;;;16.03;100.00
17060;BME280;8646;49.716;9.266;2022-10-16T06:48:57;100219.59;;;16.09;100.00
17060;BME280;8646;49.716;9.266;2022-10-16T06:52:03;100223.88;;;16.13;100.00
17060;BME280;8646;49.716;9.266;2022-10-16T06:55:06;100216.97;;;16.34;100.00
17060;BME280;8646;49.716;9.266;2022-10-16T06:58:09;100205.41;;;16.44;100.00
17060;BME280;8646;49.716;9.266;2022-10-16T07:01:13;100223.34;;;16.48;100.00
17060;BME280;8646;49.716;9.266;2022-10-16T07:04:19;100200.03;;;16.29;100.00
17060;BME280;8646;49.716;9.266;2022-10-16T07:07:28;100242.44;;;16.48;100.00
17060;BME280;8646;49.716;9.266;2022-10-16T07:10:30;100237.56;;;16.53;100.00
17060;BME280;8646;49.716;9.266;2022-10-16T07:13:34;100228.88;;;16.46;100.00
17060;BME280;8646;49.716;9.266;2022-10-16T07:16:37;100239.88;;;16.59;100.00
17060;BME280;8646;49.716;9.266;2022-10-16T07:19:39;100247.25;;;16.71;100.00
17060;BME280;8646;49.716;9.266;2022-10-16T07:22:43;100245.38;;;16.71;100.00
17060;BME280;8646;49.716;9.266;2022-10-16T07:25:53;100243.00;;;16.79;100.00
17060;BME280;8646;49.716;9.266;2022-10-16T07:28:56;100228.69;;;16.76;100.00
17060;BME280;8646;49.716;9.266;2022-10-16T07:31:59;100259.34;;;17.06;100.00
17060;BME280;8646;49.716;9.266;2022-10-16T07:35:02;100260.09;;;17.08;100.00
17060;BME280;8646;49.716;9.266;2022-10-16T07:38:06;100256.94;;;17.14;100.00
17060;BME280;8646;49.716;9.266;2022-10-16T07:41:10;100254.63;;;17.21;100.00
17060;BME280;8646;49.716;9.266;2022-10-16T07:44:15;100227.75;;;17.02;100.00
17060;BME280;8646;49.716;9.266;2022-10-16T07:47:18;100265.03;;;17.16;100.00
17060;BME280;8646;49.716;9.266;2022-10-16T07:50:22;100269.19;;;17.22;100.00
17060;BME280;8646;49.716;9.266;2022-10-16T07:53:26;100279.81;;;17.26;100.00
17060;BME280;8646;49.716;9.266;2022-10-16T07:56:30;100277.94;;;17.39;100.00
17060;BME280;8646;49.716;9.266;2022-10-16T07:59:33;100277.91;;;17.52;100.00
17060;BME280;8646;49.716;9.266;2022-10-16T08:02:36;100285.81;;;17.69;100.00
17060;BME280;8646;49.716;9.266;2022-10-16T08:05:39;100298.63;;;17.81;100.00
17060;BME280;8646;49.716;9.266;2022-10-16T08:08:43;100298.84;;;17.78;100.00
17060;BME280;8646;49.716;9.266;2022-10-16T08:11:46;100291.19;;;17.83;100.00
17060;BME280;8646;49.716;9.266;2022-10-16T08:14:49;100294.66;;;17.85;100.00
17060;BME280;8646;49.716;9.266;2022-10-16T08:17:56;100293.16;;;17.81;100.00
17060;BME280;8646;49.716;9.266;2022-10-16T08:20:59;100301.69;;;17.89;100.00
17060;BME280;8646;49.716;9.266;2022-10-16T08:24:04;100300.81;;;17.89;100.00
17060;BME280;8646;49.716;9.266;2022-10-16T08:27:07;100304.19;;;17.92;100.00
17060;BME280;8646;49.716;9.266;2022-10-16T08:30:11;100299.47;;;17.95;100.00
17060;BME280;8646;49.716;9.266;2022-10-16T08:33:14;100309.75;;;18.04;100.00
17060;BME280;8646;49.716;9.266;2022-10-16T08:36:17;100320.25;;;18.10;100.00
17060;BME280;8646;49.716;9.266;2022-10-16T08:39:21;100313.25;;;18.06;100.00
17060;BME280;8646;49.716;9.266;2022-10-16T08:42:39;100312.03;;;18.10;100.00
17060;BME280;8646;49.716;9.266;2022-10-16T08:49:15;100310.16;;;18.10;100.00
17060;BME280;8646;49.716;9.266;2022-10-16T08:52:19;100313.25;;;18.06;100.00
17060;BME280;8646;49.716;9.266;2022-10-16T08:55:42;100324.22;;;18.06;100.00
17060;BME280;8646;49.716;9.266;2022-10-16T08:58:47;100334.19;;;18.07;100.00
17060;BME280;8646;49.716;9.266;2022-10-16T09:01:51;100340.41;;;18.09;100.00
17060;BME280;8646;49.716;9.266;2022-10-16T09:05:10;100335.19;;;17.80;100.00
17060;BME280;8646;49.716;9.266;2022-10-16T09:08:24;100349.72;;;17.55;100.00
17060;BME280;8646;49.716;9.266;2022-10-16T09:11:38;100362.28;;;17.45;100.00
17060;BME280;8646;49.716;9.266;2022-10-16T09:14:53;100365.47;;;17.27;100.00
17060;BME280;8646;49.716;9.266;2022-10-16T09:18:01;100371.78;;;17.14;100.00
17060;BME280;8646;49.716;9.266;2022-10-16T09:21:10;100384.53;;;17.01;100.00
17060;BME280;8646;49.716;9.266;2022-10-16T09:24:18;100381.03;;;16.99;100.00
17060;BME280;8646;49.716;9.266;2022-10-16T09:27:27;100377.31;;;17.00;100.00
17060;BME280;8646;49.716;9.266;2022-10-16T09:30:30;100388.00;;;16.91;100.00
17060;BME280;8646;49.716;9.266;2022-10-16T09:33:36;100397.28;;;16.88;100.00
17060;BME280;8646;49.716;9.266;2022-10-16T09:36:42;100416.34;;;16.75;100.00
17060;BME280;8646;49.716;9.266;2022-10-16T09:39:46;100422.34;;;16.68;100.00
17060;BME280;8646;49.716;9.266;2022-10-16T09:42:55;100434.81;;;16.58;100.00
17060;BME280;8646;49.716;9.266;2022-10-16T09:46:01;100446.63;;;16.58;100.00
17060;BME280;8646;49.716;9.266;2022-10-16T09:49:16;100438.03;;;16.64;100.00
17060;BME280;8646;49.716;9.266;2022-10-16T09:52:22;100448.47;;;16.72;100.00
17060;BME280;8646;49.716;9.266;2022-10-16T09:55:24;100430.69;;;16.79;100.00
17060;BME280;8646;49.716;9.266;2022-10-16T09:58:28;100434.38;;;16.92;100.00
17060;BME280;8646;49.716;9.266;2022-10-16T10:01:36;100422.94;;;17.12;100.00
17060;BME280;8646;49.716;9.266;2022-10-16T10:04:43;100421.69;;;17.31;100.00
17060;BME280;8646;49.716;9.266;2022-10-16T10:07:54;100426.09;;;17.46;100.00
17060;BME280;8646;49.716;9.266;2022-10-16T10:10:57;100426.78;;;17.49;100.00
17060;BME280;8646;49.716;9.266;2022-10-16T10:14:05;100425.56;;;17.53;100.00
17060;BME280;8646;49.716;9.266;2022-10-16T10:17:15;100413.16;;;17.75;100.00
17060;BME280;8646;49.716;9.266;2022-10-16T10:20:24;100412.25;;;18.12;100.00
17060;BME280;8646;49.716;9.266;2022-10-16T10:23:28;100408.91;;;18.45;100.00
17060;BME280;8646;49.716;9.266;2022-10-16T10:26:33;100399.78;;;18.70;100.00
17060;BME280;8646;49.716;9.266;2022-10-16T10:29:49;100400.47;;;18.85;100.00
17060;BME280;8646;49.716;9.266;2022-10-16T10:33:10;100401.88;;;18.90;100.00
17060;BME280;8646;49.716;9.266;2022-10-16T10:36:23;100412.09;;;18.88;100.00
17060;BME280;8646;49.716;9.266;2022-10-16T10:39:35;100404.75;;;18.89;100.00
17060;BME280;8646;49.716;9.266;2022-10-16T10:42:47;100394.81;;;18.99;100.00
17060;BME280;8646;49.716;9.266;2022-10-16T10:45:57;100403.69;;;19.02;100.00
17060;BME280;8646;49.716;9.266;2022-10-16T10:49:20;100404.06;;;19.33;100.00
17060;BME280;8646;49.716;9.266;2022-10-16T10:52:36;100406.56;;;19.60;100.00
17060;BME280;8646;49.716;9.266;2022-10-16T10:55:46;100400.81;;;19.63;100.00
17060;BME280;8646;49.716;9.266;2022-10-16T10:59:02;100399.56;;;19.56;100.00
17060;BME280;8646;49.716;9.266;2022-10-16T11:02:18;100397.38;;;19.37;100.00
17060;BME280;8646;49.716;9.266;2022-10-16T11:05:32;100392.16;;;19.45;100.00
17060;BME280;8646;49.716;9.266;2022-10-16T11:08:41;100397.09;;;19.64;100.00
17060;BME280;8646;49.716;9.266;2022-10-16T11:11:49;100383.16;;;19.89;100.00
17060;BME280;8646;49.716;9.266;2022-10-16T11:14:58;100378.78;;;19.98;100.00
17060;BME280;8646;49.716;9.266;2022-10-16T11:18:07;100378.16;;;19.83;100.00
17060;BME280;8646;49.716;9.266;2022-10-16T11:21:12;100384.00;;;19.78;100.00
17060;BME280;8646;49.716;9.266;2022-10-16T11:24:20;100386.28;;;19.96;100.00
17060;BME280;8646;49.716;9.266;2022-10-16T11:27:34;100384.16;;;20.22;100.00
17060;BME280;8646;49.716;9.266;2022-10-16T11:30:43;100380.41;;;20.23;100.00
17060;BME280;8646;49.716;9.266;2022-10-16T11:33:52;100378.16;;;20.28;100.00
17060;BME280;8646;49.716;9.266;2022-10-16T11:37:03;100365.31;;;20.39;100.00
17060;BME280;8646;49.716;9.266;2022-10-16T11:40:19;100364.44;;;20.39;100.00
17060;BME280;8646;49.716;9.266;2022-10-16T11:43:27;100361.47;;;20.42;100.00
17060;BME280;8646;49.716;9.266;2022-10-16T11:46:32;100366.81;;;20.43;100.00
17060;BME280;8646;49.716;9.266;2022-10-16T11:50:00;100371.19;;;20.46;100.00
17060;BME280;8646;49.716;9.266;2022-10-16T11:53:14;100370.44;;;20.33;100.00
17060;BME280;8646;49.716;9.266;2022-10-16T11:56:20;100367.84;;;20.42;100.00
17060;BME280;8646;49.716;9.266;2022-10-16T11:59:30;100363.38;;;20.73;100.00
17060;BME280;8646;49.716;9.266;2022-10-16T12:02:48;100352.72;;;20.91;100.00
17060;BME280;8646;49.716;9.266;2022-10-16T12:06:05;100355.53;;;21.01;100.00
17060;BME280;8646;49.716;9.266;2022-10-16T12:09:14;100355.38;;;21.13;100.00
17060;BME280;8646;49.716;9.266;2022-10-16T12:12:25;100360.84;;;21.24;100.00
17060;BME280;8646;49.716;9.266;2022-10-16T12:15:34;100365.09;;;21.28;100.00
17060;BME280;8646;49.716;9.266;2022-10-16T12:19:11;100361.50;;;21.17;100.00
17060;BME280;8646;49.716;9.266;2022-10-16T12:22:18;100367.25;;;21.14;100.00
17060;BME280;8646;49.716;9.266;2022-10-16T12:25:23;100352.50;;;21.15;100.00
17060;BME280;8646;49.716;9.266;2022-10-16T12:28:28;100368.84;;;21.27;100.00
17060;BME280;8646;49.716;9.266;2022-10-16T12:31:37;100368.47;;;21.53;100.00
17060;BME280;8646;49.716;9.266;2022-10-16T12:34:55;100366.31;;;21.56;99.16
17060;BME280;8646;49.716;9.266;2022-10-16T12:38:15;100349.56;;;21.27;100.00
17060;BME280;8646;49.716;9.266;2022-10-16T12:41:25;100365.22;;;21.27;100.00
17060;BME280;8646;49.716;9.266;2022-10-16T12:44:32;100365.41;;;21.35;100.00
17060;BME280;8646;49.716;9.266;2022-10-16T12:47:38;100363.41;;;21.37;100.00
17060;BME280;8646;49.716;9.266;2022-10-16T12:50:49;100364.22;;;21.28;98.83
17060;BME280;8646;49.716;9.266;2022-10-16T12:54:00;100349.59;;;21.16;100.00
17060;BME280;8646;49.716;9.266;2022-10-16T12:57:13;100364.47;;;21.25;99.35
17060;BME280;8646;49.716;9.266;2022-10-16T13:00:25;100366.75;;;21.20;100.00
17060;BME280;8646;49.716;9.266;2022-10-16T13:03:53;100364.50;;;21.14;100.00
17060;BME280;8646;49.716;9.266;2022-10-16T13:07:12;100361.13;;;21.10;100.00
17060;BME280;8646;49.716;9.266;2022-10-16T13:10:25;100358.91;;;21.04;100.00
17060;BME280;8646;49.716;9.266;2022-10-16T13:13:51;100352.19;;;20.97;100.00
17060;BME280;8646;49.716;9.266;2022-10-16T13:17:02;100361.56;;;20.94;100.00
17060;BME280;8646;49.716;9.266;2022-10-16T13:20:16;100371.69;;;20.94;100.00
17060;BME280;8646;49.716;9.266;2022-10-16T13:23:24;100376.06;;;20.97;100.00
17060;BME280;8646;49.716;9.266;2022-10-16T13:26:38;100379.06;;;20.93;100.00
17060;BME280;8646;49.716;9.266;2022-10-16T13:29:43;100387.31;;;20.93;100.00
17060;BME280;8646;49.716;9.266;2022-10-16T13:32:47;100391.06;;;20.92;100.00
17060;BME280;8646;49.716;9.266;2022-10-16T13:35:53;100386.72;;;20.90;100.00
17060;BME280;8646;49.716;9.266;2022-10-16T13:42:20;100394.63;;;21.15;100.00
17060;BME280;8646;49.716;9.266;2022-10-16T13:45:28;100384.47;;;21.27;100.00
17060;BME280;8646;49.716;9.266;2022-10-16T13:48:33;100398.19;;;21.38;100.00
17060;BME280;8646;49.716;9.266;2022-10-16T13:51:36;100396.91;;;21.42;100.00
17060;BME280;8646;49.716;9.266;2022-10-16T13:54:39;100386.03;;;21.41;100.00
17060;BME280;8646;49.716;9.266;2022-10-16T13:57:44;100395.31;;;21.40;100.00
17060;BME280;8646;49.716;9.266;2022-10-16T14:00:55;100391.69;;;21.39;100.00
17060;BME280;8646;49.716;9.266;2022-10-16T14:04:04;100394.69;;;21.36;100.00
17060;BME280;8646;49.716;9.266;2022-10-16T14:07:13;100398.97;;;21.29;100.00
17060;BME280;8646;49.716;9.266;2022-10-16T14:10:24;100398.28;;;21.16;100.00
17060;BME280;8646;49.716;9.266;2022-10-16T14:13:38;100409.66;;;21.00;100.00
17060;BME280;8646;49.716;9.266;2022-10-16T14:16:43;100417.22;;;20.87;100.00
17060;BME280;8646;49.716;9.266;2022-10-16T14:19:47;100418.38;;;20.73;100.00
17060;BME280;8646;49.716;9.266;2022-10-16T14:22:59;100433.78;;;20.65;100.00
17060;BME280;8646;49.716;9.266;2022-10-16T14:26:12;100428.16;;;20.55;100.00
17060;BME280;8646;49.716;9.266;2022-10-16T14:29:19;100430.53;;;20.48;100.00
17060;BME280;8646;49.716;9.266;2022-10-16T14:32:26;100420.19;;;20.41;100.00
17060;BME280;8646;49.716;9.266;2022-10-16T14:35:31;100417.78;;;20.36;100.00
17060;BME280;8646;49.716;9.266;2022-10-16T14:38:35;100426.91;;;20.37;100.00
17060;BME280;8646;49.716;9.266;2022-10-16T14:41:41;100432.16;;;20.40;100.00
17060;BME280;8646;49.716;9.266;2022-10-16T14:44:47;100433.41;;;20.47;100.00
17060;BME280;8646;49.716;9.266;2022-10-16T14:47:54;100419.16;;;20.53;100.00
17060;BME280;8646;49.716;9.266;2022-10-16T14:50:58;100407.03;;;20.44;100.00
17060;BME280;8646;49.716;9.266;2022-10-16T14:54:01;100398.16;;;20.30;100.00
17060;BME280;8646;49.716;9.266;2022-10-16T14:57:05;100420.63;;;20.24;100.00
17060;BME280;8646;49.716;9.266;2022-10-16T15:00:15;100401.38;;;20.12;100.00
17060;BME280;8646;49.716;9.266;2022-10-16T15:03:18;100421.63;;;20.00;100.00
17060;BME280;8646;49.716;9.266;2022-10-16T15:06:21;100422.38;;;20.02;100.00
17060;BME280;8646;49.716;9.266;2022-10-16T15:09:24;100418.88;;;20.00;100.00
17060;BME280;8646;49.716;9.266;2022-10-16T15:12:27;100414.63;;;19.96;100.00
17060;BME280;8646;49.716;9.266;2022-10-16T15:15:36;100386.88;;;19.88;100.00
17060;BME280;8646;49.716;9.266;2022-10-16T15:18:39;100390.25;;;19.80;100.00
17060;BME280;8646;49.716;9.266;2022-10-16T15:21:42;100402.84;;;19.72;100.00
17060;BME280;8646;49.716;9.266;2022-10-16T15:24:45;100403.56;;;19.63;100.00
17060;BME280;8646;49.716;9.266;2022-10-16T15:27:48;100406.03;;;19.55;100.00
17060;BME280;8646;49.716;9.266;2022-10-16T15:30:53;100398.94;;;19.52;100.00
17060;BME280;8646;49.716;9.266;2022-10-16T15:33:57;100409.63;;;19.44;100.00
17060;BME280;8646;49.716;9.266;2022-10-16T15:37:05;100407.16;;;19.52;100.00
17060;BME280;8646;49.716;9.266;2022-10-16T15:40:09;100416.03;;;19.56;100.00
17060;BME280;8646;49.716;9.266;2022-10-16T15:43:12;100418.50;;;19.48;100.00
17060;BME280;8646;49.716;9.266;2022-10-16T15:46:18;100420.13;;;19.50;100.00
17060;BME280;8646;49.716;9.266;2022-10-16T15:49:21;100420.53;;;19.57;100.00
17060;BME280;8646;49.716;9.266;2022-10-16T15:52:24;100429.75;;;19.56;100.00
17060;BME280;8646;49.716;9.266;2022-10-16T15:55:28;100432.22;;;19.48;100.00
17060;BME280;8646;49.716;9.266;2022-10-16T15:58:31;100434.53;;;19.41;100.00
17060;BME280;8646;49.716;9.266;2022-10-16T16:01:35;100432.91;;;19.38;100.00
17060;BME280;8646;49.716;9.266;2022-10-16T16:04:39;100430.28;;;19.37;100.00
17060;BME280;8646;49.716;9.266;2022-10-16T16:07:45;100444.25;;;19.34;100.00
17060;BME280;8646;49.716;9.266;2022-10-16T16:10:57;100446.28;;;19.19;100.00
17060;BME280;8646;49.716;9.266;2022-10-16T16:14:00;100447.00;;;19.10;100.00
17060;BME280;8646;49.716;9.266;2022-10-16T16:17:04;100453.88;;;18.92;100.00
17060;BME280;8646;49.716;9.266;2022-10-16T16:20:08;100451.91;;;18.81;100.00
17060;BME280;8646;49.716;9.266;2022-10-16T16:23:12;100461.19;;;18.67;100.00